Portada
METAR-TAF:

METAR-TAF

Aeroports :

Pelotas, Rio Grande do Sul, Brasil

latitud: 31-52S, longitud: 052-21W, altitud: 13 m

Observació

L'informe es va fer fa 34 minuts, a les 16:00 UTC
Vent calma
Temperatura 15°C
Humitat 82%
Pressió 1028 hPa
Visibilitat 10 km o més
Núvols disperses a una alçada de 700 ft

METAR: SBPK 171600Z 00000KT 9999 SCT007 15/12 Q1028

Hora: 13:34 (16:34 UTC)

Pronòstic

L'informe es va fer fa 7 hores i 4 minuts, a les 09:30 UTC
Pronòstic vàlid del 17 a les 12 UTC al 18 a les 12 UTC
Vent kt del Nord
Visibilitat 10 km o més
sense núvols per sota de 1500 mi sense presència de cumulonimbus.
Evolucionant progressivament
l' 17 a les 12 UTC al 17 a les 14 UTC
Vent 8 kt del Est/Nord-Est

TAF: SBPK 170930Z 1712/1812 00000KT CAVOK TX18/1719Z TN08/1808Z BECMG 1712/1714 06008KT RMK PER

Observacions i pronòstics meteorològics de més de 4000 aeroports (METAR i TAF).

Les estacions disponibles són els punts grocs i vermells al mapa.

Posi el ratolí al punt desitjat per veure el nom de l'estació.

Feu clic per veure les observacions i els pronòstics meteorològics.

Per canviar el mapa: feu clic els botons verds amb una creu de color negre per apropar; al botó verd amb un guió per allunyar la imatge; o en les fletxes verdes per a mapes adjacents.


METAR-TAF: